createdAt,value
2018-09-22T00:00:28.068Z,0
2018-09-22T00:01:36.142Z,0
2018-09-22T00:02:44.192Z,0
2018-09-22T00:03:52.255Z,0
2018-09-22T00:05:00.318Z,0
2018-09-22T00:06:08.382Z,0
2018-09-22T00:07:16.444Z,0
2018-09-22T00:08:24.496Z,0
2018-09-22T00:09:32.542Z,0
2018-09-22T00:10:40.646Z,0
2018-09-22T00:11:48.689Z,0
2018-09-22T00:12:56.744Z,0
2018-09-22T00:14:04.827Z,0
2018-09-22T00:15:12.856Z,0
2018-09-22T00:16:28.205Z,0
2018-09-22T00:17:30.005Z,0
2018-09-22T00:18:38.058Z,0
2018-09-22T00:19:46.150Z,0
2018-09-22T00:20:54.177Z,0
2018-09-22T00:22:02.241Z,0
2018-09-22T00:23:10.290Z,0
2018-09-22T00:24:21.239Z,0
2018-09-22T00:25:37.930Z,0
2018-09-22T00:26:46.806Z,0
2018-09-22T00:27:53.431Z,0
2018-09-22T00:30:18.650Z,0
2018-09-22T00:31:26.744Z,0
2018-09-22T00:32:34.773Z,0
2018-09-22T00:33:42.805Z,0
2018-09-22T00:34:50.896Z,0
2018-09-22T00:35:58.978Z,0
2018-09-22T00:37:07.025Z,0
2018-09-22T00:38:15.086Z,0
2018-09-22T00:39:23.116Z,0
2018-09-22T00:40:31.247Z,0
2018-09-22T00:41:39.261Z,0
2018-09-22T00:42:47.325Z,0
2018-09-22T00:43:55.387Z,0
2018-09-22T00:45:03.438Z,0
2018-09-22T00:46:11.528Z,0
2018-09-22T00:47:19.607Z,0
2018-09-22T00:48:27.642Z,0
2018-09-22T00:49:35.707Z,0
2018-09-22T00:50:43.752Z,0
2018-09-22T00:51:51.826Z,0
2018-09-22T00:52:59.884Z,0
2018-09-22T00:54:07.947Z,0
2018-09-22T00:55:16.014Z,0
2018-09-22T00:56:24.099Z,0
2018-09-22T00:57:32.133Z,0
2018-09-22T00:58:40.197Z,0
2018-09-22T00:59:48.255Z,0
2018-09-22T01:00:56.327Z,0
2018-09-22T01:02:04.384Z,0
2018-09-22T01:03:12.453Z,0
2018-09-22T01:04:20.503Z,0
2018-09-22T01:05:28.572Z,0
2018-09-22T01:06:36.640Z,0
2018-09-22T01:07:44.701Z,0
2018-09-22T01:08:52.724Z,0
2018-09-22T01:10:00.808Z,0
2018-09-22T01:11:08.885Z,0
2018-09-22T01:12:16.961Z,0
2018-09-22T01:13:24.990Z,0
2018-09-22T01:14:33.033Z,0
2018-09-22T01:15:41.175Z,0
2018-09-22T01:16:49.194Z,0
2018-09-22T01:17:57.283Z,0
2018-09-22T01:19:05.307Z,0
2018-09-22T01:20:13.342Z,0
2018-09-22T01:21:21.438Z,0
2018-09-22T01:22:29.509Z,0
2018-09-22T01:23:37.573Z,0
2018-09-22T01:24:45.614Z,0
2018-09-22T01:25:53.685Z,0
2018-09-22T01:27:01.745Z,0
2018-09-22T01:28:09.809Z,0
2018-09-22T01:29:17.869Z,0
2018-09-22T01:30:25.938Z,0
2018-09-22T01:31:33.982Z,0
2018-09-22T01:32:42.054Z,0
2018-09-22T01:33:50.104Z,0
2018-09-22T01:34:58.186Z,0
2018-09-22T01:36:06.232Z,0
2018-09-22T01:37:14.318Z,0
2018-09-22T01:38:22.359Z,0
2018-09-22T01:39:30.446Z,0
2018-09-22T01:40:38.518Z,0
2018-09-22T01:41:46.552Z,0
2018-09-22T01:42:54.613Z,0
2018-09-22T01:44:02.657Z,0
2018-09-22T01:45:10.722Z,0
2018-09-22T01:46:18.788Z,0
2018-09-22T01:47:26.843Z,0
2018-09-22T01:48:34.917Z,0
2018-09-22T01:49:42.956Z,0
2018-09-22T01:50:51.040Z,0
2018-09-22T01:51:59.108Z,0
2018-09-22T01:53:07.191Z,0
2018-09-22T01:54:15.232Z,0
2018-09-22T01:55:23.260Z,0
2018-09-22T01:56:31.345Z,0
2018-09-22T01:57:39.415Z,0
2018-09-22T01:58:47.482Z,0
2018-09-22T01:59:55.537Z,0
2018-09-22T02:01:03.594Z,0
2018-09-22T02:02:11.684Z,0
2018-09-22T02:03:19.719Z,0
2018-09-22T02:04:27.780Z,0
2018-09-22T02:05:35.843Z,0
2018-09-22T02:06:43.909Z,0
2018-09-22T02:07:51.964Z,0
2018-09-22T02:09:00.043Z,0
2018-09-22T02:10:08.097Z,0
2018-09-22T02:11:16.190Z,0
2018-09-22T02:12:24.218Z,0
2018-09-22T02:13:32.279Z,0
2018-09-22T02:14:40.333Z,0
2018-09-22T02:15:48.408Z,0
2018-09-22T02:16:56.470Z,0
2018-09-22T02:18:04.536Z,0
2018-09-22T02:19:12.570Z,0
2018-09-22T02:20:20.664Z,0
2018-09-22T02:21:28.714Z,0
2018-09-22T02:22:36.775Z,0
2018-09-22T02:23:44.827Z,0
2018-09-22T02:24:52.879Z,0
2018-09-22T02:26:00.965Z,0
2018-09-22T02:27:09.014Z,0
2018-09-22T02:28:17.083Z,0
2018-09-22T02:29:25.164Z,0
2018-09-22T02:30:33.172Z,0
2018-09-22T02:31:41.266Z,0
2018-09-22T02:32:49.339Z,0
2018-09-22T02:33:57.395Z,0
2018-09-22T02:35:05.449Z,0
2018-09-22T02:36:13.495Z,0
2018-09-22T02:37:21.566Z,0
2018-09-22T02:38:29.643Z,0
2018-09-22T02:39:37.706Z,0
2018-09-22T02:40:45.758Z,0
2018-09-22T02:41:53.818Z,0
2018-09-22T02:43:01.893Z,0
2018-09-22T02:44:09.962Z,0
2018-09-22T02:45:18.010Z,0
2018-09-22T02:46:26.072Z,0
2018-09-22T02:47:34.144Z,0
2018-09-22T02:48:42.191Z,0
2018-09-22T02:49:50.242Z,0
2018-09-22T02:50:58.320Z,0
2018-09-22T02:52:06.392Z,0
2018-09-22T02:53:14.439Z,0
2018-09-22T02:54:22.818Z,0
2018-09-22T02:55:30.565Z,0
2018-09-22T02:56:38.630Z,0
2018-09-22T02:57:46.696Z,0
2018-09-22T02:58:54.741Z,0
2018-09-22T03:00:02.990Z,0
2018-09-22T03:01:10.893Z,0
2018-09-22T03:02:18.934Z,0
2018-09-22T03:03:27.001Z,0
2018-09-22T03:04:35.056Z,0
2018-09-22T03:05:43.113Z,0
2018-09-22T03:06:51.264Z,0
2018-09-22T03:07:59.256Z,0
2018-09-22T03:09:07.328Z,0
2018-09-22T03:10:15.374Z,0
2018-09-22T03:11:23.408Z,0
2018-09-22T03:12:31.497Z,0
2018-09-22T03:13:39.556Z,0
2018-09-22T03:14:47.624Z,0
2018-09-22T03:15:55.663Z,0
2018-09-22T03:17:03.734Z,0
2018-09-22T03:18:11.780Z,0
2018-09-22T03:19:19.850Z,0
2018-09-22T03:20:27.902Z,0
2018-09-22T03:21:35.968Z,0
2018-09-22T03:22:44.036Z,0
2018-09-22T03:23:52.098Z,0
2018-09-22T03:25:00.149Z,0
2018-09-22T03:26:08.225Z,0
2018-09-22T03:27:16.286Z,0
2018-09-22T03:28:24.351Z,0
2018-09-22T03:29:33.021Z,0
2018-09-22T03:30:43.261Z,0
2018-09-22T03:31:51.344Z,0
2018-09-22T03:32:59.607Z,0
2018-09-22T03:34:07.475Z,0
2018-09-22T03:35:15.531Z,0
2018-09-22T03:36:23.584Z,0
2018-09-22T03:37:31.653Z,0
2018-09-22T03:38:39.719Z,0
2018-09-22T03:39:47.769Z,0
2018-09-22T03:40:55.830Z,0
2018-09-22T03:42:03.909Z,0
2018-09-22T03:43:11.956Z,0
2018-09-22T03:44:20.006Z,0
2018-09-22T03:45:28.082Z,0
2018-09-22T03:46:36.145Z,0
2018-09-22T03:47:44.199Z,0
2018-09-22T03:48:52.266Z,0
2018-09-22T03:50:00.318Z,0
2018-09-22T03:51:08.397Z,0
2018-09-22T03:52:16.448Z,0
2018-09-22T03:53:24.507Z,0
2018-09-22T03:54:32.546Z,0
2018-09-22T03:55:40.632Z,0
2018-09-22T03:56:48.700Z,0
2018-09-22T03:57:56.752Z,0
2018-09-22T03:59:04.818Z,0
2018-09-22T04:00:12.856Z,0
2018-09-22T04:01:20.918Z,0
2018-09-22T04:02:29.089Z,0
2018-09-22T04:03:37.088Z,0
2018-09-22T04:04:45.124Z,0
2018-09-22T04:05:53.145Z,0
2018-09-22T04:07:01.248Z,0
2018-09-22T04:08:09.299Z,0
2018-09-22T04:09:17.372Z,0
2018-09-22T04:10:29.291Z,0
2018-09-22T04:11:33.458Z,0
2018-09-22T04:12:41.759Z,0
2018-09-22T04:13:49.621Z,0
2018-09-22T04:14:57.675Z,0
2018-09-22T04:16:05.729Z,0
2018-09-22T04:17:14.085Z,0
2018-09-22T04:18:23.817Z,0
2018-09-22T04:19:29.907Z,0
2018-09-22T04:20:38.017Z,0
2018-09-22T04:21:46.343Z,0
2018-09-22T04:22:54.099Z,0
2018-09-22T04:24:02.164Z,0
2018-09-22T04:25:10.216Z,0
2018-09-22T04:26:18.268Z,0
2018-09-22T04:27:26.353Z,0
2018-09-22T04:28:34.410Z,0
2018-09-22T04:29:42.448Z,0
2018-09-22T04:30:50.531Z,0
2018-09-22T04:31:58.592Z,0
2018-09-22T04:33:06.649Z,0
2018-09-22T04:34:14.708Z,0
2018-09-22T04:35:22.738Z,0
2018-09-22T04:36:30.818Z,0
2018-09-22T04:37:38.888Z,0
2018-09-22T04:38:46.937Z,0
2018-09-22T04:39:55.419Z,0
2018-09-22T04:41:03.048Z,0
2018-09-22T04:42:11.123Z,0
2018-09-22T04:43:19.182Z,0
2018-09-22T04:44:27.244Z,0
2018-09-22T04:45:35.757Z,0
2018-09-22T04:46:43.337Z,0
2018-09-22T04:47:51.806Z,0
2018-09-22T04:48:59.498Z,0
2018-09-22T04:50:07.563Z,0
2018-09-22T04:51:15.615Z,0
2018-09-22T04:52:23.674Z,0
2018-09-22T04:53:31.733Z,0
2018-09-22T04:54:39.853Z,0
2018-09-22T04:55:47.850Z,0
2018-09-22T04:56:56.075Z,0
2018-09-22T04:58:04.270Z,0
2018-09-22T04:59:12.041Z,0
2018-09-22T05:00:20.096Z,0
2018-09-22T05:01:28.159Z,0
2018-09-22T05:02:36.479Z,0
2018-09-22T05:03:44.296Z,0
2018-09-22T05:04:52.609Z,0
2018-09-22T05:06:00.876Z,0
2018-09-22T05:07:08.726Z,5
2018-09-22T05:08:16.529Z,5
2018-09-22T05:09:24.584Z,5
2018-09-22T05:10:32.620Z,5
2018-09-22T05:11:40.700Z,5
2018-09-22T05:12:48.772Z,5
2018-09-22T05:13:56.826Z,5
2018-09-22T05:15:04.880Z,10
2018-09-22T05:16:12.915Z,10
2018-09-22T05:17:21.001Z,10
2018-09-22T05:18:29.380Z,10
2018-09-22T05:19:37.126Z,15
2018-09-22T05:20:45.302Z,15
2018-09-22T05:21:53.325Z,20
2018-09-22T05:23:01.439Z,20
2018-09-22T05:24:09.549Z,25
2018-09-22T05:25:17.476Z,25
2018-09-22T05:26:25.531Z,25
2018-09-22T05:27:33.546Z,30
2018-09-22T05:28:41.697Z,30
2018-09-22T05:29:49.829Z,30
2018-09-22T05:30:57.877Z,35
2018-09-22T05:32:05.937Z,35
2018-09-22T05:33:13.896Z,35
2018-09-22T05:34:22.265Z,35
2018-09-22T05:35:30.387Z,35
2018-09-22T05:36:38.043Z,40
2018-09-22T05:37:46.300Z,40
2018-09-22T05:38:54.445Z,40
2018-09-22T05:40:02.493Z,40
2018-09-22T05:41:10.571Z,40
2018-09-22T05:42:18.842Z,45
2018-09-22T05:43:26.497Z,45
2018-09-22T05:44:34.471Z,50
2018-09-22T05:45:42.523Z,55
2018-09-22T05:46:50.574Z,65
2018-09-22T05:47:58.648Z,70
2018-09-22T05:49:06.704Z,80
2018-09-22T05:50:14.762Z,80
2018-09-22T05:51:22.811Z,85
2018-09-22T05:52:30.880Z,85
2018-09-22T05:53:38.951Z,80
2018-09-22T05:54:47.019Z,80
2018-09-22T05:55:55.064Z,80
2018-09-22T05:57:03.107Z,80
2018-09-22T05:58:11.519Z,85
2018-09-22T05:59:19.920Z,90
2018-09-22T06:00:27.969Z,100
2018-09-22T06:01:36.057Z,105
2018-09-22T06:02:43.844Z,110
2018-09-22T06:03:51.844Z,110
2018-09-22T06:05:00.022Z,110
2018-09-22T06:06:08.209Z,110
2018-09-22T06:07:16.424Z,110
2018-09-22T06:08:23.742Z,110
2018-09-22T06:09:32.443Z,115
2018-09-22T06:10:40.466Z,115
2018-09-22T06:11:48.603Z,120
2018-09-22T06:12:56.265Z,125
2018-09-22T06:14:05.444Z,130
2018-09-22T06:15:12.855Z,135
2018-09-22T06:16:20.835Z,140
2018-09-22T06:17:28.897Z,140
2018-09-22T06:18:36.918Z,145
2018-09-22T06:19:44.573Z,145
2018-09-22T06:20:53.127Z,150
2018-09-22T06:22:00.476Z,150
2018-09-22T06:23:08.612Z,155
2018-09-22T06:24:16.596Z,160
2018-09-22T06:25:24.673Z,165
2018-09-22T06:26:32.693Z,160
2018-09-22T06:27:40.787Z,155
2018-09-22T06:28:48.864Z,155
2018-09-22T06:29:56.911Z,160
2018-09-22T06:31:05.160Z,170
2018-09-22T06:32:12.999Z,175
2018-09-22T06:33:21.088Z,180
2018-09-22T06:34:29.152Z,185
2018-09-22T06:35:37.215Z,190
2018-09-22T06:36:45.283Z,195
2018-09-22T06:37:53.322Z,190
2018-09-22T06:39:01.426Z,190
2018-09-22T06:40:09.470Z,200
2018-09-22T06:41:17.525Z,195
2018-09-22T06:42:25.599Z,200
2018-09-22T06:43:33.658Z,200
2018-09-22T06:44:41.714Z,195
2018-09-22T06:45:49.790Z,190
2018-09-22T06:46:57.839Z,185
2018-09-22T06:48:05.910Z,180
2018-09-22T06:49:13.961Z,185
2018-09-22T06:50:22.021Z,195
2018-09-22T06:51:30.092Z,200
2018-09-22T06:52:38.156Z,205
2018-09-22T06:53:46.211Z,215
2018-09-22T06:54:54.336Z,225
2018-09-22T06:56:02.461Z,235
2018-09-22T06:57:10.415Z,245
2018-09-22T06:58:18.463Z,265
2018-09-22T06:59:26.528Z,285
2018-09-22T07:00:34.587Z,295
2018-09-22T07:01:42.706Z,315
2018-09-22T07:02:50.782Z,355
2018-09-22T07:03:58.820Z,395
2018-09-22T07:05:06.839Z,440
2018-09-22T07:06:15.009Z,445
2018-09-22T07:07:22.995Z,495
2018-09-22T07:08:31.302Z,480
2018-09-22T07:09:39.768Z,440
2018-09-22T07:10:51.460Z,425
2018-09-22T07:11:59.753Z,425
2018-09-22T07:13:07.521Z,370
2018-09-22T07:14:15.894Z,390
2018-09-22T07:15:23.639Z,390
2018-09-22T07:16:31.756Z,395
2018-09-22T07:17:39.774Z,395
2018-09-22T07:18:47.933Z,360
2018-09-22T07:19:55.904Z,310
2018-09-22T07:21:03.976Z,295
2018-09-22T07:22:12.301Z,290
2018-09-22T07:23:20.661Z,280
2018-09-22T07:24:28.166Z,280
2018-09-22T07:25:36.238Z,285
2018-09-22T07:26:44.918Z,295
2018-09-22T07:27:53.077Z,305
2018-09-22T07:29:01.584Z,315
2018-09-22T07:30:08.495Z,320
2018-09-22T07:31:16.555Z,320
2018-09-22T07:32:24.640Z,330
2018-09-22T07:33:32.739Z,320
2018-09-22T07:34:40.748Z,315
2018-09-22T07:35:49.423Z,315
2018-09-22T07:36:56.896Z,320
2018-09-22T07:38:05.209Z,330
2018-09-22T07:39:13.577Z,340
2018-09-22T07:40:22.101Z,350
2018-09-22T07:41:29.876Z,360
2018-09-22T07:42:37.491Z,350
2018-09-22T07:43:47.159Z,350
2018-09-22T07:44:54.932Z,355
2018-09-22T07:46:03.012Z,355
2018-09-22T07:47:11.077Z,340
2018-09-22T07:48:19.200Z,345
2018-09-22T07:49:27.235Z,350
2018-09-22T07:50:35.264Z,355
2018-09-22T07:51:43.309Z,340
2018-09-22T07:52:51.454Z,315
2018-09-22T07:53:59.462Z,305
2018-09-22T07:55:08.102Z,305
2018-09-22T07:56:15.898Z,315
2018-09-22T07:57:24.237Z,315
2018-09-22T07:58:31.730Z,310
2018-09-22T07:59:39.830Z,300
2018-09-22T08:00:47.858Z,305
2018-09-22T08:01:55.923Z,325
2018-09-22T08:03:06.648Z,360
2018-09-22T08:04:12.057Z,370
2018-09-22T08:05:20.176Z,360
2018-09-22T08:06:28.200Z,345
2018-09-22T08:07:36.248Z,345
2018-09-22T08:08:44.572Z,350
2018-09-22T08:09:52.397Z,335
2018-09-22T08:11:00.465Z,315
2018-09-22T08:12:09.704Z,310
2018-09-22T08:13:16.587Z,310
2018-09-22T08:14:24.656Z,325
2018-09-22T08:15:34.428Z,320
2018-09-22T08:16:40.777Z,310
2018-09-22T08:17:48.904Z,315
2018-09-22T08:18:56.926Z,340
2018-09-22T08:20:04.983Z,365
2018-09-22T08:21:13.009Z,370
2018-09-22T08:22:21.109Z,355
2018-09-22T08:23:29.163Z,350
2018-09-22T08:24:37.253Z,345
2018-09-22T08:25:45.558Z,360
2018-09-22T08:26:53.357Z,375
2018-09-22T08:28:01.428Z,375
2018-09-22T08:29:09.512Z,375
2018-09-22T08:30:17.576Z,375
2018-09-22T08:31:25.647Z,385
2018-09-22T08:32:33.687Z,395
2018-09-22T08:33:41.796Z,395
2018-09-22T08:34:49.823Z,375
2018-09-22T08:35:57.946Z,380
2018-09-22T08:37:06.082Z,390
2018-09-22T08:38:14.036Z,400
2018-09-22T08:39:22.090Z,410
2018-09-22T08:40:30.265Z,415
2018-09-22T08:41:38.228Z,410
2018-09-22T08:42:46.289Z,395
2018-09-22T08:43:56.140Z,390
2018-09-22T08:45:02.411Z,390
2018-09-22T08:46:10.486Z,405
2018-09-22T08:47:18.559Z,430
2018-09-22T08:48:26.610Z,445
2018-09-22T08:49:34.728Z,455
2018-09-22T08:50:42.723Z,450
2018-09-22T08:51:50.820Z,445
2018-09-22T08:52:58.889Z,440
2018-09-22T08:54:06.982Z,430
2018-09-22T08:55:15.017Z,435
2018-09-22T08:56:23.056Z,440
2018-09-22T08:57:31.151Z,445
2018-09-22T08:58:39.225Z,445
2018-09-22T08:59:47.322Z,440
2018-09-22T09:00:55.346Z,430
2018-09-22T09:02:03.391Z,420
2018-09-22T09:03:11.470Z,395
2018-09-22T09:04:19.902Z,375
2018-09-22T09:05:27.629Z,365
2018-09-22T09:06:35.672Z,375
2018-09-22T09:07:43.760Z,395
2018-09-22T09:08:51.812Z,425
2018-09-22T09:09:59.877Z,440
2018-09-22T09:11:07.946Z,455
2018-09-22T09:12:16.037Z,460
2018-09-22T09:13:24.113Z,465
2018-09-22T09:14:32.206Z,470
2018-09-22T09:15:40.227Z,475
2018-09-22T09:16:48.261Z,480
2018-09-22T09:17:56.340Z,485
2018-09-22T09:19:04.414Z,490
2018-09-22T09:20:12.468Z,490
2018-09-22T09:21:20.535Z,480
2018-09-22T09:22:28.602Z,475
2018-09-22T09:23:36.686Z,480
2018-09-22T09:24:44.741Z,495
2018-09-22T09:25:52.777Z,500
2018-09-22T09:27:00.892Z,515
2018-09-22T09:28:08.943Z,535
2018-09-22T09:29:17.016Z,545
2018-09-22T09:30:25.063Z,555
2018-09-22T09:31:33.120Z,555
2018-09-22T09:32:41.229Z,555
2018-09-22T09:33:49.267Z,545
2018-09-22T09:34:57.344Z,525
2018-09-22T09:36:05.418Z,510
2018-09-22T09:37:13.457Z,500
2018-09-22T09:38:21.536Z,500
2018-09-22T09:39:29.612Z,510
2018-09-22T09:40:37.670Z,510
2018-09-22T09:41:45.752Z,505
2018-09-22T09:42:53.810Z,520
2018-09-22T09:44:01.878Z,530
2018-09-22T09:45:09.945Z,530
2018-09-22T09:46:18.019Z,530
2018-09-22T09:47:26.088Z,530
2018-09-22T09:48:34.169Z,530
2018-09-22T09:49:42.221Z,535
2018-09-22T09:50:50.304Z,535
2018-09-22T09:51:58.359Z,535
2018-09-22T09:53:06.403Z,535
2018-09-22T09:54:14.488Z,525
2018-09-22T09:55:22.555Z,520
2018-09-22T09:56:30.626Z,525
2018-09-22T09:57:38.679Z,530
2018-09-22T09:58:46.776Z,530
2018-09-22T09:59:54.843Z,530
2018-09-22T10:01:02.867Z,530
2018-09-22T10:02:10.950Z,530
2018-09-22T10:03:19.021Z,525
2018-09-22T10:04:27.166Z,530
2018-09-22T10:05:35.152Z,530
2018-09-22T10:06:43.204Z,535
2018-09-22T10:07:51.314Z,540
2018-09-22T10:08:59.380Z,540
2018-09-22T10:10:07.444Z,535
2018-09-22T10:11:15.533Z,525
2018-09-22T10:12:23.564Z,520
2018-09-22T10:13:31.648Z,530
2018-09-22T10:14:39.711Z,535
2018-09-22T10:15:47.811Z,540
2018-09-22T10:16:55.834Z,540
2018-09-22T10:18:03.919Z,540
2018-09-22T10:19:11.964Z,530
2018-09-22T10:20:20.105Z,535
2018-09-22T10:21:28.117Z,530
2018-09-22T10:22:36.193Z,525
2018-09-22T10:23:44.241Z,515
2018-09-22T10:24:52.326Z,510
2018-09-22T10:26:00.389Z,500
2018-09-22T10:27:08.462Z,490
2018-09-22T10:28:16.528Z,490
2018-09-22T10:29:24.572Z,480
2018-09-22T10:30:32.638Z,485
2018-09-22T10:31:40.735Z,485
2018-09-22T10:32:48.788Z,485
2018-09-22T10:33:57.174Z,470
2018-09-22T10:35:04.924Z,450
2018-09-22T10:36:12.970Z,430
2018-09-22T10:37:21.058Z,400
2018-09-22T10:38:29.124Z,385
2018-09-22T10:39:37.329Z,375
2018-09-22T10:40:45.546Z,345
2018-09-22T10:41:53.304Z,325
2018-09-22T10:43:01.649Z,325
2018-09-22T10:44:09.542Z,320
2018-09-22T10:45:17.805Z,315
2018-09-22T10:46:25.897Z,310
2018-09-22T10:47:33.656Z,285
2018-09-22T10:48:41.730Z,275
2018-09-22T10:49:49.803Z,260
2018-09-22T10:50:57.917Z,250
2018-09-22T10:52:05.944Z,250
2018-09-22T10:53:14.036Z,255
2018-09-22T10:54:22.472Z,250
2018-09-22T10:55:30.394Z,270
2018-09-22T10:56:38.486Z,290
2018-09-22T10:57:46.607Z,275
2018-09-22T10:58:54.342Z,260
2018-09-22T11:00:02.721Z,250
2018-09-22T11:01:10.475Z,230
2018-09-22T11:02:18.564Z,235
2018-09-22T11:03:26.645Z,230
2018-09-22T11:04:34.679Z,230
2018-09-22T11:05:42.720Z,220
2018-09-22T11:06:50.842Z,210
2018-09-22T11:07:58.883Z,205
2018-09-22T11:09:06.949Z,205
2018-09-22T11:10:15.009Z,205
2018-09-22T11:11:23.057Z,215
2018-09-22T11:12:31.153Z,235
2018-09-22T11:13:39.210Z,215
2018-09-22T11:14:47.292Z,230
2018-09-22T11:15:55.347Z,200
2018-09-22T11:17:03.398Z,220
2018-09-22T11:18:11.489Z,235
2018-09-22T11:19:19.557Z,215
2018-09-22T11:20:28.225Z,190
2018-09-22T11:21:35.695Z,180
2018-09-22T11:22:43.758Z,175
2018-09-22T11:23:51.822Z,185
2018-09-22T11:24:59.881Z,195
2018-09-22T11:26:07.961Z,205
2018-09-22T11:27:16.029Z,205
2018-09-22T11:28:24.081Z,210
2018-09-22T11:29:32.152Z,215
2018-09-22T11:30:40.226Z,240
2018-09-22T11:31:48.266Z,230
2018-09-22T11:32:56.349Z,275
2018-09-22T11:34:04.426Z,340
2018-09-22T11:35:12.490Z,455
2018-09-22T11:36:20.542Z,410
2018-09-22T11:37:28.598Z,390
2018-09-22T11:38:36.665Z,320
2018-09-22T11:39:44.757Z,270
2018-09-22T11:40:52.774Z,230
2018-09-22T11:42:00.909Z,195
2018-09-22T11:43:08.931Z,180
2018-09-22T11:44:17.014Z,165
2018-09-22T11:45:25.073Z,150
2018-09-22T11:46:33.103Z,160
2018-09-22T11:47:41.202Z,155
2018-09-22T11:48:49.261Z,165
2018-09-22T11:49:57.335Z,180
2018-09-22T11:51:05.405Z,190
2018-09-22T11:52:13.448Z,195
2018-09-22T11:53:21.538Z,200
2018-09-22T11:54:29.608Z,260
2018-09-22T11:55:37.656Z,255
2018-09-22T11:56:45.736Z,260
2018-09-22T11:57:53.815Z,250
2018-09-22T11:59:01.889Z,265
2018-09-22T12:00:09.927Z,235
2018-09-22T12:01:17.999Z,205
2018-09-22T12:02:26.068Z,165
2018-09-22T12:03:38.163Z,160
2018-09-22T12:04:46.269Z,155
2018-09-22T12:05:54.332Z,150
2018-09-22T12:07:02.347Z,160
2018-09-22T12:08:10.449Z,150
2018-09-22T12:09:18.492Z,155
2018-09-22T12:10:26.555Z,155
2018-09-22T12:11:34.629Z,145
2018-09-22T12:12:42.686Z,155
2018-09-22T12:13:50.757Z,150
2018-09-22T12:14:58.822Z,140
2018-09-22T12:16:06.873Z,140
2018-09-22T12:17:14.967Z,135
2018-09-22T12:18:22.996Z,150
2018-09-22T12:19:31.072Z,155
2018-09-22T12:20:39.158Z,150
2018-09-22T12:21:47.222Z,150
2018-09-22T12:22:55.291Z,150
2018-09-22T12:24:03.323Z,155
2018-09-22T12:25:11.407Z,155
2018-09-22T12:26:19.487Z,160
2018-09-22T12:27:27.536Z,155
2018-09-22T12:28:35.631Z,150
2018-09-22T12:29:43.676Z,150
2018-09-22T12:30:51.751Z,150
2018-09-22T12:31:59.843Z,145
2018-09-22T12:33:07.888Z,145
2018-09-22T12:34:15.957Z,145
2018-09-22T12:35:24.019Z,140
2018-09-22T12:36:32.086Z,140
2018-09-22T12:37:40.138Z,140
2018-09-22T12:38:48.199Z,145
2018-09-22T12:39:56.283Z,145
2018-09-22T12:41:04.337Z,145
2018-09-22T12:42:12.398Z,150
2018-09-22T12:43:20.482Z,150
2018-09-22T12:44:28.581Z,150
2018-09-22T12:45:36.597Z,165
2018-09-22T12:46:44.660Z,180
2018-09-22T12:47:52.713Z,180
2018-09-22T12:49:00.808Z,155
2018-09-22T12:50:08.871Z,155
2018-09-22T12:51:16.943Z,140
2018-09-22T12:52:25.010Z,135
2018-09-22T12:53:33.048Z,130
2018-09-22T12:54:41.145Z,120
2018-09-22T12:55:49.200Z,125
2018-09-22T12:56:57.254Z,130
2018-09-22T12:58:05.338Z,135
2018-09-22T12:59:13.371Z,135
2018-09-22T13:00:21.468Z,130
2018-09-22T13:01:29.524Z,140
2018-09-22T13:02:37.606Z,135
2018-09-22T13:03:45.699Z,135
2018-09-22T13:04:53.732Z,145
2018-09-22T13:06:01.788Z,145
2018-09-22T13:07:09.851Z,150
2018-09-22T13:08:17.924Z,155
2018-09-22T13:09:26.000Z,165
2018-09-22T13:10:34.059Z,175
2018-09-22T13:11:42.134Z,170
2018-09-22T13:12:50.195Z,185
2018-09-22T13:13:58.257Z,185
2018-09-22T13:15:06.329Z,175
2018-09-22T13:16:14.405Z,175
2018-09-22T13:17:22.447Z,165
2018-09-22T13:18:30.516Z,160
2018-09-22T13:19:38.588Z,160
2018-09-22T13:20:46.649Z,175
2018-09-22T13:21:54.728Z,180
2018-09-22T13:23:02.783Z,185
2018-09-22T13:24:10.857Z,180
2018-09-22T13:25:18.926Z,180
2018-09-22T13:26:26.989Z,175
2018-09-22T13:27:35.051Z,175
2018-09-22T13:28:43.099Z,170
2018-09-22T13:29:51.239Z,165
2018-09-22T13:30:59.237Z,175
2018-09-22T13:32:07.328Z,180
2018-09-22T13:33:15.393Z,180
2018-09-22T13:34:23.444Z,180
2018-09-22T13:35:31.526Z,180
2018-09-22T13:36:39.577Z,180
2018-09-22T13:37:47.648Z,180
2018-09-22T13:38:55.733Z,180
2018-09-22T13:40:03.777Z,180
2018-09-22T13:41:11.839Z,190
2018-09-22T13:42:19.928Z,200
2018-09-22T13:43:28.038Z,195
2018-09-22T13:44:36.051Z,200
2018-09-22T13:45:44.128Z,210
2018-09-22T13:46:52.183Z,205
2018-09-22T13:48:00.250Z,200
2018-09-22T13:49:08.322Z,205
2018-09-22T13:50:16.873Z,205
2018-09-22T13:51:24.449Z,205
2018-09-22T13:52:32.522Z,205
2018-09-22T13:53:40.583Z,210
2018-09-22T13:54:48.668Z,215
2018-09-22T13:55:56.722Z,210
2018-09-22T13:57:04.780Z,205
2018-09-22T13:58:12.828Z,195
2018-09-22T13:59:20.911Z,185
2018-09-22T14:00:28.988Z,180
2018-09-22T14:01:37.073Z,170
2018-09-22T14:02:45.109Z,165
2018-09-22T14:03:53.144Z,160
2018-09-22T14:05:01.238Z,160
2018-09-22T14:06:09.312Z,160
2018-09-22T14:07:17.362Z,155
2018-09-22T14:08:25.430Z,155
2018-09-22T14:09:33.481Z,155
2018-09-22T14:10:41.583Z,155
2018-09-22T14:11:49.650Z,150
2018-09-22T14:12:57.694Z,155
2018-09-22T14:14:05.792Z,160
2018-09-22T14:15:13.837Z,160
2018-09-22T14:16:21.908Z,150
2018-09-22T14:17:29.979Z,155
2018-09-22T14:18:38.066Z,165
2018-09-22T14:19:46.116Z,170
2018-09-22T14:20:54.177Z,175
2018-09-22T14:22:02.225Z,175
2018-09-22T14:23:10.304Z,170
2018-09-22T14:24:18.466Z,160
2018-09-22T14:25:26.431Z,155
2018-09-22T14:26:34.542Z,150
2018-09-22T14:27:42.551Z,140
2018-09-22T14:28:50.656Z,130
2018-09-22T14:29:58.711Z,130
2018-09-22T14:31:06.780Z,135
2018-09-22T14:32:14.839Z,135
2018-09-22T14:33:22.881Z,140
2018-09-22T14:34:30.972Z,145
2018-09-22T14:35:39.035Z,155
2018-09-22T14:36:47.101Z,160
2018-09-22T14:37:55.169Z,165
2018-09-22T14:39:03.216Z,165
2018-09-22T14:40:11.301Z,160
2018-09-22T14:41:19.366Z,160
2018-09-22T14:42:27.431Z,160
2018-09-22T14:43:35.494Z,155
2018-09-22T14:44:43.545Z,160
2018-09-22T14:45:51.645Z,160
2018-09-22T14:46:59.716Z,160
2018-09-22T14:48:07.765Z,155
2018-09-22T14:49:15.826Z,150
2018-09-22T14:50:23.893Z,150
2018-09-22T14:51:31.972Z,140
2018-09-22T14:52:40.026Z,135
2018-09-22T14:53:48.089Z,130
2018-09-22T14:54:56.157Z,130
2018-09-22T14:56:04.225Z,130
2018-09-22T14:57:12.278Z,130
2018-09-22T14:58:20.345Z,130
2018-09-22T14:59:28.419Z,135
2018-09-22T15:00:36.496Z,130
2018-09-22T15:01:44.564Z,130
2018-09-22T15:02:52.605Z,130
2018-09-22T15:04:00.702Z,125
2018-09-22T15:05:08.799Z,125
2018-09-22T15:06:16.822Z,125
2018-09-22T15:07:24.888Z,120
2018-09-22T15:08:32.970Z,125
2018-09-22T15:09:41.028Z,120
2018-09-22T15:10:49.087Z,115
2018-09-22T15:11:57.152Z,115
2018-09-22T15:13:05.227Z,120
2018-09-22T15:14:13.268Z,115
2018-09-22T15:15:21.357Z,125
2018-09-22T15:16:29.427Z,130
2018-09-22T15:17:37.492Z,145
2018-09-22T15:18:45.569Z,135
2018-09-22T15:19:53.618Z,135
2018-09-22T15:21:01.694Z,145
2018-09-22T15:22:09.762Z,145
2018-09-22T15:23:17.816Z,140
2018-09-22T15:24:25.887Z,140
2018-09-22T15:25:33.955Z,145
2018-09-22T15:26:42.016Z,140
2018-09-22T15:27:50.077Z,130
2018-09-22T15:28:58.149Z,130
2018-09-22T15:30:06.224Z,135
2018-09-22T15:31:14.278Z,130
2018-09-22T15:32:22.337Z,120
2018-09-22T15:33:30.403Z,115
2018-09-22T15:34:38.505Z,120
2018-09-22T15:35:46.529Z,120
2018-09-22T15:36:54.615Z,115
2018-09-22T15:38:02.664Z,115
2018-09-22T15:39:10.749Z,115
2018-09-22T15:40:18.798Z,125
2018-09-22T15:41:26.862Z,145
2018-09-22T15:42:34.947Z,165
2018-09-22T15:43:42.978Z,145
2018-09-22T15:44:51.065Z,110
2018-09-22T15:45:59.138Z,105
2018-09-22T15:47:07.200Z,95
2018-09-22T15:48:15.304Z,90
2018-09-22T15:49:23.301Z,85
2018-09-22T15:50:31.413Z,80
2018-09-22T15:51:39.455Z,85
2018-09-22T15:52:47.543Z,95
2018-09-22T15:53:55.590Z,95
2018-09-22T15:55:03.673Z,95
2018-09-22T15:56:11.717Z,95
2018-09-22T15:57:19.806Z,100
2018-09-22T15:58:27.857Z,105
2018-09-22T15:59:35.930Z,120
2018-09-22T16:00:44.002Z,125
2018-09-22T16:01:52.070Z,125